createdAt,value
2018-06-04T00:00:51.554Z,17.40
2018-06-04T00:03:26.283Z,17.40
2018-06-04T00:06:01.651Z,17.40
2018-06-04T00:08:37.024Z,17.30
2018-06-04T00:11:11.744Z,17.30
2018-06-04T00:13:46.456Z,17.20
2018-06-04T00:16:21.220Z,17.20
2018-06-04T00:18:56.034Z,17.20
2018-06-04T00:21:30.788Z,17.20
2018-06-04T00:24:05.679Z,17.20
2018-06-04T00:26:40.423Z,17.20
2018-06-04T00:29:14.875Z,17.10
2018-06-04T00:31:49.652Z,17.10
2018-06-04T00:34:24.600Z,17.10
2018-06-04T00:36:59.043Z,17.10
2018-06-04T00:39:34.776Z,17.10
2018-06-04T00:42:09.426Z,17.00
2018-06-04T00:44:44.145Z,17.10
2018-06-04T00:49:53.801Z,17.00
2018-06-04T00:52:28.685Z,16.90
2018-06-04T00:55:03.441Z,16.90
2018-06-04T00:57:37.977Z,16.90
2018-06-04T01:00:12.668Z,16.90
2018-06-04T01:02:47.311Z,16.80
2018-06-04T01:05:21.961Z,16.80
2018-06-04T01:07:56.412Z,16.80
2018-06-04T01:10:31.229Z,16.70
2018-06-04T01:13:05.972Z,16.70
2018-06-04T01:15:40.544Z,16.70
2018-06-04T01:18:15.269Z,16.60
2018-06-04T01:20:49.978Z,16.60
2018-06-04T01:23:24.578Z,16.60
2018-06-04T01:25:59.275Z,16.60
2018-06-04T01:28:33.795Z,16.50
2018-06-04T01:31:08.637Z,16.50
2018-06-04T01:33:43.086Z,16.50
2018-06-04T01:36:17.919Z,16.40
2018-06-04T01:38:52.593Z,16.40
2018-06-04T01:41:27.271Z,16.40
2018-06-04T01:44:02.036Z,16.30
2018-06-04T01:46:36.492Z,16.30
2018-06-04T01:49:11.301Z,16.30
2018-06-04T01:51:46.078Z,16.30
2018-06-04T01:54:20.848Z,16.20
2018-06-04T01:56:55.592Z,16.20
2018-06-04T01:59:30.257Z,16.10
2018-06-04T02:02:04.879Z,16.10
2018-06-04T02:04:39.510Z,16.10
2018-06-04T02:07:14.245Z,16.10
2018-06-04T02:09:48.935Z,16.10
2018-06-04T02:12:24.237Z,16.00
2018-06-04T02:14:59.906Z,16.10
2018-06-04T02:17:34.884Z,16.00
2018-06-04T02:20:09.660Z,16.00
2018-06-04T02:22:44.399Z,16.00
2018-06-04T02:25:19.270Z,16.00
2018-06-04T02:27:53.857Z,15.90
2018-06-04T02:30:28.533Z,15.90
2018-06-04T02:33:02.999Z,15.90
2018-06-04T02:35:37.817Z,15.90
2018-06-04T02:38:12.651Z,15.80
2018-06-04T02:40:47.403Z,15.80
2018-06-04T02:43:23.031Z,15.80
2018-06-04T02:45:58.040Z,15.80
2018-06-04T02:48:32.938Z,15.70
2018-06-04T02:51:07.918Z,15.70
2018-06-04T02:53:42.693Z,15.70
2018-06-04T02:56:17.528Z,15.70
2018-06-04T02:58:53.223Z,15.60
2018-06-04T03:01:27.990Z,15.60
2018-06-04T03:04:03.108Z,15.60
2018-06-04T03:06:37.933Z,15.60
2018-06-04T03:09:12.596Z,15.60
2018-06-04T03:11:47.149Z,15.60
2018-06-04T03:14:21.938Z,15.50
2018-06-04T03:16:56.897Z,15.50
2018-06-04T03:19:31.300Z,15.50
2018-06-04T03:22:06.057Z,15.50
2018-06-04T03:24:40.787Z,15.40
2018-06-04T03:27:15.484Z,15.40
2018-06-04T03:29:50.061Z,15.40
2018-06-04T03:32:25.113Z,15.30
2018-06-04T03:34:59.217Z,15.40
2018-06-04T03:37:34.026Z,15.30
2018-06-04T03:40:08.741Z,15.30
2018-06-04T03:42:43.412Z,15.30
2018-06-04T03:45:18.231Z,15.30
2018-06-04T03:47:52.738Z,15.30
2018-06-04T03:50:28.023Z,15.30
2018-06-04T03:53:02.318Z,15.30
2018-06-04T03:55:37.048Z,15.30
2018-06-04T03:58:12.695Z,15.30
2018-06-04T04:00:47.291Z,15.30
2018-06-04T04:03:22.038Z,15.30
2018-06-04T04:05:56.625Z,15.40
2018-06-04T04:08:31.390Z,15.40
2018-06-04T04:11:06.018Z,15.40
2018-06-04T04:13:40.650Z,15.50
2018-06-04T04:16:15.285Z,15.50
2018-06-04T04:18:49.960Z,15.50
2018-06-04T04:21:24.731Z,15.60
2018-06-04T04:23:59.242Z,15.70
2018-06-04T04:26:33.945Z,15.70
2018-06-04T04:29:08.398Z,15.80
2018-06-04T04:31:43.297Z,15.90
2018-06-04T04:34:17.817Z,16.00
2018-06-04T04:36:52.828Z,16.10
2018-06-04T04:39:27.473Z,16.30
2018-06-04T04:42:02.126Z,16.40
2018-06-04T04:44:36.853Z,16.50
2018-06-04T04:47:11.563Z,16.60
2018-06-04T04:49:46.166Z,16.80
2018-06-04T04:52:20.945Z,16.90
2018-06-04T04:54:56.155Z,17.10
2018-06-04T04:57:30.426Z,17.30
2018-06-04T05:00:05.119Z,17.50
2018-06-04T05:02:39.591Z,17.70
2018-06-04T05:05:14.345Z,17.90
2018-06-04T05:07:49.159Z,18.10
2018-06-04T05:10:23.870Z,18.30
2018-06-04T05:12:58.646Z,18.50
2018-06-04T05:15:33.592Z,18.70
2018-06-04T05:18:08.354Z,19.00
2018-06-04T05:20:43.105Z,19.20
2018-06-04T05:23:18.015Z,19.50
2018-06-04T05:25:52.314Z,19.90
2018-06-04T05:28:27.179Z,20.40
2018-06-04T05:31:01.950Z,20.70
2018-06-04T05:33:36.713Z,21.20
2018-06-04T05:36:11.451Z,22.30
2018-06-04T05:38:46.731Z,23.70
2018-06-04T05:41:20.966Z,25.00
2018-06-04T05:43:55.816Z,25.80
2018-06-04T05:46:30.547Z,26.50
2018-06-04T05:49:05.383Z,26.60
2018-06-04T05:51:39.877Z,26.60
2018-06-04T05:56:49.030Z,27.20
2018-06-04T05:59:23.762Z,27.20
2018-06-04T06:01:58.327Z,27.20
2018-06-04T06:04:33.044Z,27.20
2018-06-04T06:07:07.639Z,27.30
2018-06-04T06:09:42.405Z,27.40
2018-06-04T06:12:17.163Z,27.30
2018-06-04T06:14:51.902Z,27.70
2018-06-04T06:17:26.538Z,28.20
2018-06-04T06:20:01.231Z,28.80
2018-06-04T06:22:35.889Z,29.20
2018-06-04T06:25:10.539Z,29.50
2018-06-04T06:27:45.375Z,29.70
2018-06-04T06:30:20.069Z,30.00
2018-06-04T06:32:54.895Z,29.80
2018-06-04T06:35:29.662Z,30.00
2018-06-04T06:38:04.312Z,30.30
2018-06-04T06:40:39.162Z,30.20
2018-06-04T06:43:13.814Z,30.20
2018-06-04T06:45:48.566Z,30.10
2018-06-04T06:48:23.270Z,30.00
2018-06-04T06:50:58.053Z,29.80
2018-06-04T06:56:07.236Z,30.00
2018-06-04T06:58:41.893Z,30.00
2018-06-04T07:01:16.559Z,30.00
2018-06-04T07:03:51.098Z,30.00
2018-06-04T07:06:25.685Z,30.00
2018-06-04T07:09:00.326Z,30.10
2018-06-04T07:11:34.891Z,30.10
2018-06-04T07:14:09.611Z,30.20
2018-06-04T07:16:44.283Z,30.20
2018-06-04T07:19:19.040Z,30.00
2018-06-04T07:21:53.933Z,30.10
2018-06-04T07:24:28.497Z,30.00
2018-06-04T07:27:03.389Z,30.20
2018-06-04T07:29:37.862Z,30.10
2018-06-04T07:32:12.620Z,30.20
2018-06-04T07:34:47.317Z,30.10
2018-06-04T07:37:22.119Z,30.00
2018-06-04T07:39:56.737Z,30.00
2018-06-04T07:42:31.327Z,30.10
2018-06-04T07:45:06.255Z,30.10
2018-06-04T07:47:40.683Z,30.10
2018-06-04T07:50:16.320Z,30.10
2018-06-04T07:52:51.416Z,30.00
2018-06-04T07:55:26.268Z,30.00
2018-06-04T07:58:00.961Z,30.10
2018-06-04T08:00:35.570Z,30.00
2018-06-04T08:03:10.036Z,30.20
2018-06-04T08:05:44.497Z,30.20
2018-06-04T08:08:19.158Z,30.10
2018-06-04T08:10:53.932Z,30.10
2018-06-04T08:13:28.771Z,30.00
2018-06-04T08:16:03.366Z,30.10
2018-06-04T08:18:38.033Z,30.10
2018-06-04T08:21:12.831Z,29.90
2018-06-04T08:23:47.663Z,29.90
2018-06-04T08:26:22.291Z,30.00
2018-06-04T08:28:57.079Z,29.90
2018-06-04T08:31:31.961Z,29.80
2018-06-04T08:34:06.627Z,30.00
2018-06-04T08:36:41.209Z,30.00
2018-06-04T08:39:16.158Z,30.10
2018-06-04T08:41:50.765Z,30.10
2018-06-04T08:44:25.397Z,30.10
2018-06-04T08:47:00.013Z,30.40
2018-06-04T08:49:34.953Z,30.40
2018-06-04T08:52:09.249Z,30.50
2018-06-04T08:54:43.950Z,30.50
2018-06-04T08:57:18.505Z,30.70
2018-06-04T08:59:53.387Z,30.90
2018-06-04T09:02:28.344Z,31.40
2018-06-04T09:05:03.120Z,31.50
2018-06-04T09:07:37.687Z,31.80
2018-06-04T09:10:12.354Z,31.90
2018-06-04T09:12:47.027Z,32.00
2018-06-04T09:15:22.776Z,32.30
2018-06-04T09:17:57.475Z,32.50
2018-06-04T09:20:32.938Z,32.50
2018-06-04T09:23:08.066Z,32.50
2018-06-04T09:25:42.825Z,32.60
2018-06-04T09:28:17.432Z,32.60
2018-06-04T09:30:52.324Z,32.60
2018-06-04T09:33:26.987Z,32.30
2018-06-04T09:36:02.225Z,32.10
2018-06-04T09:38:36.647Z,31.90
2018-06-04T09:41:11.360Z,32.00
2018-06-04T09:43:46.117Z,31.80
2018-06-04T09:46:20.735Z,31.80
2018-06-04T09:48:55.409Z,31.90
2018-06-04T09:51:30.169Z,32.00
2018-06-04T09:54:04.902Z,32.00
2018-06-04T09:59:14.254Z,32.10
2018-06-04T10:01:49.161Z,31.90
2018-06-04T10:04:23.595Z,31.80
2018-06-04T10:06:58.266Z,31.60
2018-06-04T10:09:32.725Z,31.70
2018-06-04T10:12:07.394Z,31.60
2018-06-04T10:14:41.969Z,31.60
2018-06-04T10:17:16.782Z,31.60
2018-06-04T10:19:51.251Z,31.60
2018-06-04T10:22:25.918Z,31.40
2018-06-04T10:25:00.609Z,31.20
2018-06-04T10:27:35.219Z,31.10
2018-06-04T10:30:10.538Z,31.00
2018-06-04T10:32:45.396Z,30.80
2018-06-04T10:35:20.137Z,30.50
2018-06-04T10:37:54.801Z,30.50
2018-06-04T10:40:29.417Z,30.60
2018-06-04T10:43:05.120Z,30.70
2018-06-04T10:45:39.782Z,30.50
2018-06-04T10:48:14.710Z,30.30
2018-06-04T10:50:49.574Z,29.90
2018-06-04T10:53:24.079Z,29.90
2018-06-04T10:55:58.931Z,29.90
2018-06-04T10:58:33.730Z,29.90
2018-06-04T11:01:08.531Z,29.90
2018-06-04T11:03:43.398Z,29.90
2018-06-04T11:06:17.768Z,29.80
2018-06-04T11:08:52.462Z,29.50
2018-06-04T11:11:27.307Z,29.40
2018-06-04T11:14:01.973Z,29.30
2018-06-04T11:16:36.608Z,29.20
2018-06-04T11:19:11.367Z,29.00
2018-06-04T11:21:46.043Z,28.80
2018-06-04T11:24:20.881Z,28.60
2018-06-04T11:26:55.545Z,28.60
2018-06-04T11:29:30.037Z,28.50
2018-06-04T11:32:04.693Z,28.50
2018-06-04T11:34:39.463Z,28.40
2018-06-04T11:37:14.097Z,28.30
2018-06-04T11:39:48.979Z,28.20
2018-06-04T11:42:23.501Z,28.00
2018-06-04T11:44:58.274Z,27.90
2018-06-04T11:47:32.973Z,27.80
2018-06-04T11:50:07.488Z,27.80
2018-06-04T11:52:42.059Z,27.80
2018-06-04T11:55:16.734Z,27.80
2018-06-04T11:57:51.718Z,27.70
2018-06-04T12:00:26.183Z,27.60
2018-06-04T12:03:01.229Z,27.70
2018-06-04T12:05:36.392Z,27.70
2018-06-04T12:08:10.882Z,27.60
2018-06-04T12:10:45.815Z,27.60
2018-06-04T12:13:20.465Z,27.50
2018-06-04T12:15:55.110Z,27.50
2018-06-04T12:18:29.737Z,27.40
2018-06-04T12:21:04.300Z,27.40
2018-06-04T12:23:38.859Z,27.40
2018-06-04T12:26:13.471Z,27.30
2018-06-04T12:31:22.877Z,27.30
2018-06-04T12:33:57.892Z,27.30
2018-06-04T12:36:32.506Z,27.30
2018-06-04T12:39:08.738Z,27.30
2018-06-04T12:41:43.939Z,27.30
2018-06-04T12:44:18.421Z,27.20
2018-06-04T12:46:53.253Z,27.10
2018-06-04T12:49:27.959Z,27.10
2018-06-04T12:52:02.778Z,27.10
2018-06-04T12:54:37.462Z,27.10
2018-06-04T12:57:12.216Z,27.10
2018-06-04T12:59:47.149Z,27.00
2018-06-04T13:02:21.788Z,27.00
2018-06-04T13:04:56.368Z,27.00
2018-06-04T13:07:31.189Z,27.00
2018-06-04T13:10:05.864Z,27.00
2018-06-04T13:12:40.339Z,27.00
2018-06-04T13:15:15.307Z,27.00
2018-06-04T13:17:49.946Z,27.00
2018-06-04T13:20:24.727Z,27.00
2018-06-04T13:22:59.335Z,27.00
2018-06-04T13:25:33.928Z,27.00
2018-06-04T13:28:08.734Z,27.00
2018-06-04T13:30:43.267Z,27.00
2018-06-04T13:33:18.174Z,27.10
2018-06-04T13:35:52.591Z,27.10
2018-06-04T13:38:27.119Z,27.00
2018-06-04T13:41:01.875Z,27.00
2018-06-04T13:43:36.443Z,27.00
2018-06-04T13:46:11.222Z,27.10
2018-06-04T13:48:45.909Z,27.10
2018-06-04T13:51:20.554Z,27.10
2018-06-04T13:53:55.195Z,27.10
2018-06-04T13:56:30.025Z,27.10
2018-06-04T13:59:04.832Z,27.10
2018-06-04T14:01:39.432Z,27.00
2018-06-04T14:04:14.071Z,27.10
2018-06-04T14:06:48.840Z,27.10
2018-06-04T14:09:23.624Z,27.10
2018-06-04T14:11:58.090Z,27.10
2018-06-04T14:14:33.311Z,27.10
2018-06-04T14:17:08.384Z,27.10
2018-06-04T14:19:49.940Z,27.10
2018-06-04T14:22:25.158Z,27.10
2018-06-04T14:24:59.946Z,27.10
2018-06-04T14:27:34.428Z,27.10
2018-06-04T14:30:10.489Z,27.00
2018-06-04T14:32:44.854Z,27.00
2018-06-04T14:35:19.526Z,26.90
2018-06-04T14:37:54.264Z,26.90
2018-06-04T14:40:28.964Z,26.90
2018-06-04T14:43:03.575Z,26.90
2018-06-04T14:45:38.408Z,26.90
2018-06-04T14:48:14.177Z,26.90
2018-06-04T14:50:48.607Z,26.90
2018-06-04T14:53:23.444Z,26.90
2018-06-04T14:55:58.037Z,26.90
2018-06-04T14:58:32.896Z,26.90
2018-06-04T15:01:07.612Z,26.80
2018-06-04T15:03:42.193Z,26.90
2018-06-04T15:06:16.670Z,26.80
2018-06-04T15:08:51.401Z,26.80
2018-06-04T15:11:26.600Z,26.80
2018-06-04T15:14:01.052Z,26.70
2018-06-04T15:16:35.421Z,26.80
2018-06-04T15:19:09.964Z,26.80
2018-06-04T15:21:44.677Z,26.80
2018-06-04T15:24:19.375Z,26.80
2018-06-04T15:26:53.913Z,26.90
2018-06-04T15:29:28.544Z,26.90
2018-06-04T15:32:03.496Z,26.90
2018-06-04T15:34:37.893Z,26.90
2018-06-04T15:37:12.719Z,26.80
2018-06-04T15:39:47.200Z,26.90
2018-06-04T15:42:21.897Z,26.90
2018-06-04T15:44:56.772Z,26.90
2018-06-04T15:47:31.419Z,26.90
2018-06-04T15:50:06.016Z,26.90
2018-06-04T15:52:41.492Z,26.90
2018-06-04T15:55:16.502Z,26.90
2018-06-04T15:57:51.347Z,26.80
2018-06-04T16:00:26.902Z,26.80
2018-06-04T16:03:01.492Z,26.80
2018-06-04T16:05:36.285Z,26.70
2018-06-04T16:08:10.944Z,26.70
2018-06-04T16:10:46.400Z,26.60
2018-06-04T16:13:21.038Z,26.60
2018-06-04T16:15:56.399Z,26.60
2018-06-04T16:18:31.692Z,26.60
2018-06-04T16:21:06.743Z,26.60
2018-06-04T16:23:41.734Z,26.60
2018-06-04T16:26:17.028Z,26.60
2018-06-04T16:28:52.226Z,26.60
2018-06-04T16:31:26.610Z,26.60
2018-06-04T16:34:01.436Z,26.60
2018-06-04T16:36:36.136Z,26.60
2018-06-04T16:39:10.642Z,26.60
2018-06-04T16:41:45.294Z,26.60
2018-06-04T16:44:19.878Z,26.60
2018-06-04T16:46:54.804Z,26.50
2018-06-04T16:49:29.173Z,26.50
2018-06-04T16:52:03.846Z,26.50
2018-06-04T16:54:38.619Z,26.50
2018-06-04T16:57:13.414Z,26.50
2018-06-04T16:59:48.309Z,26.40
2018-06-04T17:02:22.930Z,26.40
2018-06-04T17:04:57.802Z,26.40
2018-06-04T17:07:32.753Z,26.40
2018-06-04T17:10:07.142Z,26.30
2018-06-04T17:12:41.663Z,26.30
2018-06-04T17:15:17.516Z,26.30
2018-06-04T17:17:52.420Z,26.30
2018-06-04T17:20:27.741Z,26.30
2018-06-04T17:23:02.801Z,26.30
2018-06-04T17:25:38.326Z,26.20
2018-06-04T17:28:12.833Z,26.20
2018-06-04T17:30:47.332Z,26.20
2018-06-04T17:33:21.875Z,26.20
2018-06-04T17:35:57.030Z,26.20
2018-06-04T17:38:34.442Z,26.20
2018-06-04T17:41:09.712Z,26.20
2018-06-04T17:43:44.531Z,26.20
2018-06-04T17:46:20.849Z,26.20
2018-06-04T17:48:55.804Z,26.10
2018-06-04T17:51:31.945Z,26.10
2018-06-04T17:54:07.349Z,26.10
2018-06-04T17:56:43.595Z,26.00
2018-06-04T17:59:18.708Z,26.00
2018-06-04T18:01:54.621Z,26.00
2018-06-04T18:04:29.878Z,26.00
2018-06-04T18:07:04.088Z,26.00
2018-06-04T18:09:38.581Z,25.90
2018-06-04T18:12:13.257Z,25.90
2018-06-04T18:14:48.224Z,25.80
2018-06-04T18:17:22.877Z,25.80
2018-06-04T18:19:57.441Z,25.80
2018-06-04T18:22:32.089Z,25.70
2018-06-04T18:25:06.755Z,25.70
2018-06-04T18:27:41.552Z,25.70
2018-06-04T18:30:16.210Z,25.60
2018-06-04T18:32:51.000Z,25.60
2018-06-04T18:35:25.967Z,25.50
2018-06-04T18:38:00.851Z,25.50
2018-06-04T18:40:35.691Z,25.40
2018-06-04T18:43:10.269Z,25.40
2018-06-04T18:45:45.158Z,25.30
2018-06-04T18:48:20.039Z,25.30
2018-06-04T18:50:55.039Z,25.20
2018-06-04T18:53:29.522Z,25.20
2018-06-04T18:56:04.038Z,25.10
2018-06-04T18:58:38.897Z,25.10
2018-06-04T19:01:13.611Z,25.00
2018-06-04T19:03:48.951Z,25.00
2018-06-04T19:06:23.821Z,24.90
2018-06-04T19:08:58.143Z,24.90
2018-06-04T19:11:32.817Z,24.80
2018-06-04T19:14:07.714Z,24.70
2018-06-04T19:16:42.041Z,24.70
2018-06-04T19:19:16.731Z,24.70
2018-06-04T19:21:51.528Z,24.60
2018-06-04T19:24:26.071Z,24.60
2018-06-04T19:27:00.772Z,24.50
2018-06-04T19:29:35.384Z,24.50
2018-06-04T19:32:10.175Z,24.40
2018-06-04T19:34:44.316Z,24.30
2018-06-04T19:37:19.198Z,24.30
2018-06-04T19:39:53.549Z,24.30
2018-06-04T19:42:28.240Z,24.20
2018-06-04T19:45:04.945Z,24.20
2018-06-04T19:47:40.124Z,24.10
2018-06-04T19:50:14.992Z,24.00
2018-06-04T19:52:51.583Z,24.00
2018-06-04T19:55:27.248Z,23.90
2018-06-04T19:58:02.740Z,23.90
2018-06-04T20:00:37.091Z,23.70
2018-06-04T20:03:11.632Z,23.70
2018-06-04T20:05:46.274Z,23.60
2018-06-04T20:08:21.050Z,23.50
2018-06-04T20:10:55.669Z,23.40
2018-06-04T20:13:30.471Z,23.30
2018-06-04T20:16:05.240Z,23.20
2018-06-04T20:18:40.668Z,23.20
2018-06-04T20:21:15.347Z,23.10
2018-06-04T20:23:50.245Z,23.00
2018-06-04T20:26:24.682Z,23.00
2018-06-04T20:28:59.368Z,22.90
2018-06-04T20:31:33.885Z,22.80
2018-06-04T20:34:08.643Z,22.80
2018-06-04T20:36:43.076Z,22.70
2018-06-04T20:39:17.680Z,22.60
2018-06-04T20:41:52.426Z,22.60
2018-06-04T20:44:27.137Z,22.60
2018-06-04T20:47:02.229Z,22.60
2018-06-04T20:49:36.600Z,22.50
2018-06-04T20:52:11.125Z,22.50
2018-06-04T20:54:45.672Z,22.50
2018-06-04T20:57:20.401Z,22.50
2018-06-04T20:59:54.881Z,22.50
2018-06-04T21:02:29.490Z,22.50
2018-06-04T21:05:04.273Z,22.50
2018-06-04T21:07:39.024Z,22.40
2018-06-04T21:10:13.884Z,22.40
2018-06-04T21:12:48.634Z,22.30
2018-06-04T21:15:23.339Z,22.30
2018-06-04T21:17:58.167Z,22.20
2018-06-04T21:20:32.698Z,22.10
2018-06-04T21:23:07.456Z,22.10
2018-06-04T21:25:42.081Z,22.00
2018-06-04T21:28:16.910Z,22.00
2018-06-04T21:30:51.733Z,21.90
2018-06-04T21:33:26.326Z,21.90
2018-06-04T21:36:00.907Z,21.90
2018-06-04T21:38:35.728Z,21.80
2018-06-04T21:41:10.429Z,21.80
2018-06-04T21:43:44.972Z,21.80
2018-06-04T21:46:19.789Z,21.70
2018-06-04T21:48:54.290Z,21.70
2018-06-04T21:51:29.098Z,21.60
2018-06-04T21:54:03.793Z,21.60
2018-06-04T21:56:38.637Z,21.50
2018-06-04T21:59:13.540Z,21.40
2018-06-04T22:01:48.129Z,21.40
2018-06-04T22:04:22.745Z,21.30
2018-06-04T22:06:57.633Z,21.20
2018-06-04T22:09:32.358Z,21.10
2018-06-04T22:12:06.941Z,21.10
2018-06-04T22:14:41.529Z,21.00
2018-06-04T22:17:16.186Z,20.90
2018-06-04T22:19:50.915Z,20.90
2018-06-04T22:22:25.434Z,20.90
2018-06-04T22:24:59.982Z,20.80
2018-06-04T22:27:34.435Z,20.80
2018-06-04T22:30:08.897Z,20.80
2018-06-04T22:32:43.637Z,20.80
2018-06-04T22:35:18.520Z,20.80
2018-06-04T22:37:52.976Z,20.80
2018-06-04T22:40:27.681Z,20.80
2018-06-04T22:43:02.828Z,20.70
2018-06-04T22:45:37.073Z,20.70
2018-06-04T22:48:11.754Z,20.70
2018-06-04T22:50:46.358Z,20.70
2018-06-04T22:53:20.996Z,20.70
2018-06-04T22:55:55.555Z,20.80
2018-06-04T22:58:30.859Z,20.80
2018-06-04T23:01:05.042Z,20.70
2018-06-04T23:03:39.868Z,20.80
2018-06-04T23:06:14.717Z,20.70
2018-06-04T23:08:49.407Z,20.70
2018-06-04T23:11:24.098Z,20.70
2018-06-04T23:13:59.002Z,20.70
2018-06-04T23:16:33.801Z,20.60
2018-06-04T23:19:08.278Z,20.60
2018-06-04T23:21:43.154Z,20.50
2018-06-04T23:24:17.998Z,20.50
2018-06-04T23:26:52.613Z,20.40
2018-06-04T23:29:27.428Z,20.40
2018-06-04T23:32:02.041Z,20.30
2018-06-04T23:34:36.755Z,20.30
2018-06-04T23:37:11.371Z,20.20
2018-06-04T23:39:45.978Z,20.20
2018-06-04T23:42:20.620Z,20.20
